Time;durP1;ratioP1;P1;durP2;ratioP2;P2;SDS_P1;SDS_P2;PMS_P1;PMS_P2;Temp;Humidity;BMP_temperature;BMP_pressure;BME280_temperature;BME280_humidity;BME280_pressure;Samples;Min_cycle;Max_cycle;Signal;HPM_P1;HPM_P2
2022/03/14 00:01:21;;;;;;;13.33;12.23;;;8.10;59.60;;;;;;5117903;27;20646;-85
2022/03/14 00:03:50;;;;;;;12.27;11.27;;;8.30;58.80;;;;;;5103032;27;20663;-84
2022/03/14 00:06:18;;;;;;;13.60;12.43;;;8.20;59.00;;;;;;5103568;27;20645;-85
2022/03/14 00:08:45;;;;;;;14.30;12.93;;;8.40;59.40;;;;;;5104529;27;22799;-86
2022/03/14 00:11:16;;;;;;;13.37;12.10;;;8.10;58.90;;;;;;5106971;27;20662;-86
2022/03/14 00:13:46;;;;;;;13.20;12.07;;;8.30;59.20;;;;;;5105518;27;21058;-85
2022/03/14 00:16:24;;;;;;;12.63;11.63;;;7.90;59.10;;;;;;5112500;27;20650;-86
2022/03/14 00:18:53;;;;;;;14.90;13.50;;;8.20;59.30;;;;;;5095135;27;20667;-86
2022/03/14 00:21:23;;;;;;;14.00;12.80;;;8.30;58.60;;;;;;5111592;27;20743;-86
2022/03/14 00:23:51;;;;;;;14.47;13.17;;;8.00;58.60;;;;;;5105286;27;20668;-86
2022/03/14 00:26:22;;;;;;;14.00;12.53;;;8.10;59.40;;;;;;5106791;27;20639;-86
2022/03/14 00:28:49;;;;;;;13.80;12.50;;;8.20;60.30;;;;;;5105936;27;20992;-85
2022/03/14 00:31:16;;;;;;;12.73;11.50;;;8.40;61.40;;;;;;5109992;27;21385;-84
2022/03/14 00:33:43;;;;;;;13.40;12.20;;;7.90;60.90;;;;;;5108597;27;20623;-85
2022/03/14 00:36:11;;;;;;;13.83;12.57;;;8.20;62.00;;;;;;5107864;27;20620;-84
2022/03/14 00:38:40;;;;;;;13.53;12.23;;;8.10;62.00;;;;;;5112366;27;20650;-84
2022/03/14 00:41:08;;;;;;;12.63;11.53;;;8.30;61.30;;;;;;5122300;27;21117;-84
2022/03/14 00:43:37;;;;;;;12.70;11.50;;;8.30;61.30;;;;;;5116184;27;20667;-84
2022/03/14 00:46:05;;;;;;;13.70;12.43;;;8.30;62.10;;;;;;5110844;27;20624;-86
2022/03/14 00:48:34;;;;;;;13.50;12.30;;;8.30;62.60;;;;;;5112940;27;20626;-85
2022/03/14 00:51:02;;;;;;;13.53;12.23;;;7.80;61.90;;;;;;5115588;27;20655;-84
2022/03/14 00:53:31;;;;;;;14.50;13.10;;;8.30;61.00;;;;;;5105285;27;20619;-85
2022/03/14 00:55:59;;;;;;;14.17;12.93;;;8.40;59.40;;;;;;5115139;27;21065;-85
2022/03/14 00:58:26;;;;;;;13.57;12.33;;;8.30;59.90;;;;;;5114425;27;20633;-84
2022/03/14 01:00:54;;;;;;;13.73;12.43;;;8.40;59.90;;;;;;5107478;27;21087;-86
2022/03/14 01:03:21;;;;;;;13.97;12.67;;;8.40;59.80;;;;;;5113546;27;20668;-85
2022/03/14 01:05:48;;;;;;;15.90;14.10;;;8.50;59.50;;;;;;5113638;27;20627;-86
2022/03/14 01:08:16;;;;;;;14.70;13.40;;;8.50;59.40;;;;;;5119740;27;20615;-86
2022/03/14 01:10:43;;;;;;;14.30;13.10;;;8.50;59.90;;;;;;5111716;27;20736;-86
2022/03/14 01:13:11;;;;;;;12.77;11.77;;;8.20;60.40;;;;;;5102787;27;20621;-85
2022/03/14 01:15:38;;;;;;;13.33;12.03;;;8.50;62.10;;;;;;5108009;28;20750;-86
2022/03/14 01:18:07;;;;;;;14.43;12.90;;;8.60;61.80;;;;;;5116898;27;20618;-85
2022/03/14 01:20:34;;;;;;;14.17;12.83;;;8.20;59.80;;;;;;5113784;27;20659;-87
2022/03/14 01:23:01;;;;;;;14.50;12.70;;;8.40;60.20;;;;;;5112354;27;20658;-86
2022/03/14 01:25:27;;;;;;;13.50;12.40;;;8.50;60.70;;;;;;5111919;27;20650;-85
2022/03/14 01:27:55;;;;;;;13.03;11.90;;;8.60;61.20;;;;;;5102856;27;20627;-85
2022/03/14 01:30:22;;;;;;;14.80;13.40;;;8.40;60.90;;;;;;5107929;27;20689;-86
2022/03/14 01:32:50;;;;;;;13.63;12.53;;;8.20;60.20;;;;;;5102449;27;21168;-85
2022/03/14 01:35:18;;;;;;;13.73;12.57;;;8.70;60.70;;;;;;5113025;27;20639;-85
2022/03/14 01:37:49;;;;;;;12.60;11.50;;;8.50;61.00;;;;;;5097993;28;20756;-85
2022/03/14 01:40:16;;;;;;;13.90;12.47;;;8.70;61.90;;;;;;5104707;27;20676;-85
2022/03/14 01:42:43;;;;;;;13.27;12.03;;;9.00;63.00;;;;;;5107051;27;20668;-85
2022/03/14 01:45:10;;;;;;;16.83;15.33;;;8.70;61.60;;;;;;5097747;28;20632;-85
2022/03/14 01:47:38;;;;;;;17.40;15.60;;;8.70;65.10;;;;;;5111367;28;20658;-84
2022/03/14 01:50:07;;;;;;;18.77;16.90;;;9.10;67.70;;;;;;5116944;28;20653;-85
2022/03/14 01:52:35;;;;;;;20.67;18.70;;;9.20;73.80;;;;;;5118111;28;20639;-85
2022/03/14 01:55:03;;;;;;;18.27;16.57;;;9.40;81.20;;;;;;5120311;28;20605;-86
2022/03/14 01:57:30;;;;;;;19.40;17.70;;;9.60;82.80;;;;;;5111967;28;20638;-86
2022/03/14 01:59:58;;;;;;;20.20;18.50;;;9.60;84.00;;;;;;5112650;28;20664;-85
2022/03/14 02:02:24;;;;;;;19.20;17.50;;;9.70;85.70;;;;;;5123498;28;20626;-85
2022/03/14 02:04:52;;;;;;;20.63;18.93;;;9.80;90.40;;;;;;5116201;28;20687;-86
2022/03/14 02:07:20;;;;;;;21.07;19.17;;;9.80;92.70;;;;;;5127534;28;20623;-85
2022/03/14 02:09:48;;;;;;;21.80;19.63;;;9.80;95.50;;;;;;5109864;28;20658;-84
2022/03/14 02:12:15;;;;;;;19.60;17.90;;;9.90;97.50;;;;;;5101850;28;20641;-84
2022/03/14 02:14:42;;;;;;;22.10;20.20;;;9.90;99.90;;;;;;5102380;28;20684;-86
2022/03/14 02:17:10;;;;;;;20.00;18.10;;;9.90;99.90;;;;;;5105196;27;20749;-85
2022/03/14 02:19:39;;;;;;;21.33;19.60;;;9.70;99.90;;;;;;5101424;27;20673;-85
2022/03/14 02:22:13;;;;;;;21.40;19.43;;;9.80;99.90;;;;;;5101017;28;21240;-85
2022/03/14 02:24:40;;;;;;;20.83;19.00;;;9.80;99.90;;;;;;5107805;28;20784;-85
2022/03/14 02:27:08;;;;;;;20.73;19.03;;;9.90;99.90;;;;;;5103265;27;20638;-86
2022/03/14 02:29:35;;;;;;;22.20;20.20;;;9.90;99.90;;;;;;5110734;27;20659;-85
2022/03/14 02:32:01;;;;;;;21.30;19.37;;;9.90;99.90;;;;;;5103113;27;21327;-85
2022/03/14 02:34:28;;;;;;;21.03;19.07;;;9.80;99.90;;;;;;5105073;27;20623;-86
2022/03/14 02:36:55;;;;;;;21.47;19.47;;;9.50;99.90;;;;;;5109578;27;20623;-86
2022/03/14 02:39:24;;;;;;;21.73;19.73;;;9.80;99.90;;;;;;5110344;27;20630;-86
2022/03/14 02:41:51;;;;;;;22.60;20.70;;;9.80;99.90;;;;;;5111762;27;20622;-86
2022/03/14 02:44:18;;;;;;;23.40;21.33;;;9.70;99.90;;;;;;5114398;27;21204;-85
2022/03/14 02:46:45;;;;;;;21.90;19.97;;;9.80;99.90;;;;;;5113554;27;20653;-86
2022/03/14 02:49:12;;;;;;;20.83;18.93;;;9.80;99.90;;;;;;5110715;27;20630;-86
2022/03/14 02:51:40;;;;;;;22.70;20.40;;;9.70;99.90;;;;;;5124629;28;20631;-86
2022/03/14 02:54:08;;;;;;;22.70;20.60;;;9.80;99.90;;;;;;5107053;27;20996;-86
2022/03/14 02:56:36;;;;;;;21.43;19.33;;;9.70;99.90;;;;;;5112837;27;20635;-85
2022/03/14 02:59:06;;;;;;;24.10;21.90;;;9.70;99.90;;;;;;5114996;27;20668;-84
2022/03/14 03:01:33;;;;;;;22.70;20.30;;;9.60;99.90;;;;;;5106752;27;20648;-84
2022/03/14 03:03:59;;;;;;;23.10;20.90;;;9.60;99.90;;;;;;5111882;27;20673;-84
2022/03/14 03:06:26;;;;;;;23.90;21.50;;;9.60;99.90;;;;;;5104982;27;20643;-84
2022/03/14 03:08:55;;;;;;;25.37;22.90;;;9.00;99.90;;;;;;5111563;27;20622;-84
2022/03/14 03:11:23;;;;;;;24.93;22.53;;;9.30;99.90;;;;;;5099243;27;20712;-84
2022/03/14 03:13:54;;;;;;;26.33;23.73;;;9.20;99.90;;;;;;5103196;27;21416;-84
2022/03/14 03:16:21;;;;;;;23.87;21.47;;;9.20;99.90;;;;;;5104071;28;20623;-84
2022/03/14 03:18:47;;;;;;;24.97;22.60;;;9.20;99.90;;;;;;5096274;28;20615;-84
2022/03/14 03:21:15;;;;;;;24.53;22.33;;;9.20;99.90;;;;;;5101534;27;20647;-84
2022/03/14 03:23:42;;;;;;;23.07;20.63;;;8.80;99.90;;;;;;5100273;28;21101;-84
2022/03/14 03:26:09;;;;;;;24.10;21.70;;;8.90;99.90;;;;;;5106646;28;20630;-85
2022/03/14 03:28:37;;;;;;;25.80;23.30;;;9.10;99.90;;;;;;5105420;27;20628;-85
2022/03/14 03:31:07;;;;;;;25.90;23.40;;;9.10;99.90;;;;;;5099903;27;21247;-84
2022/03/14 03:33:34;;;;;;;25.80;23.37;;;9.00;99.90;;;;;;5108656;27;21498;-85
2022/03/14 03:36:01;;;;;;;26.43;24.10;;;9.00;99.90;;;;;;5103883;27;20638;-85
2022/03/14 03:38:28;;;;;;;30.80;24.17;;;8.90;99.90;;;;;;5108336;27;20626;-85
2022/03/14 03:40:55;;;;;;;25.30;22.70;;;9.00;99.90;;;;;;5108350;27;21219;-85
2022/03/14 03:43:22;;;;;;;26.90;24.10;;;9.00;99.90;;;;;;5107414;27;20666;-85
2022/03/14 03:45:49;;;;;;;24.63;22.53;;;9.00;99.90;;;;;;5102082;27;20607;-84
2022/03/14 03:48:18;;;;;;;24.20;22.00;;;9.00;99.90;;;;;;5112378;27;20630;-86
2022/03/14 03:50:45;;;;;;;25.00;22.70;;;8.80;99.90;;;;;;5129165;27;20660;-86
2022/03/14 03:53:12;;;;;;;25.80;23.40;;;8.80;99.90;;;;;;5114455;27;20623;-86
2022/03/14 03:55:39;;;;;;;27.33;24.70;;;8.90;99.90;;;;;;5106028;27;20631;-85
2022/03/14 03:58:06;;;;;;;26.13;23.30;;;8.60;99.90;;;;;;5107747;27;20612;-85
2022/03/14 04:00:33;;;;;;;27.90;25.00;;;8.30;99.90;;;;;;5112309;27;20725;-86
2022/03/14 04:03:00;;;;;;;27.20;24.83;;;8.70;99.90;;;;;;5104737;27;21181;-86
2022/03/14 04:05:30;;;;;;;25.27;22.97;;;8.90;99.90;;;;;;5105792;27;20639;-84
2022/03/14 04:07:58;;;;;;;27.67;25.00;;;8.60;99.90;;;;;;5106281;27;20634;-85
2022/03/14 04:10:28;;;;;;;26.03;23.70;;;8.70;99.90;;;;;;5111333;27;20691;-85
2022/03/14 04:12:59;;;;;;;26.40;24.00;;;8.70;99.90;;;;;;5107692;27;20641;-85
2022/03/14 04:15:27;;;;;;;26.57;24.20;;;8.70;99.90;;;;;;5128561;27;20630;-85
2022/03/14 04:17:57;;;;;;;24.07;21.77;;;8.30;99.90;;;;;;5110632;27;20662;-84
2022/03/14 04:20:24;;;;;;;23.47;21.50;;;8.40;99.90;;;;;;5097569;27;20709;-84
2022/03/14 04:22:54;;;;;;;28.43;25.83;;;8.60;99.90;;;;;;5104523;27;20628;-85
2022/03/14 04:25:21;;;;;;;22.17;20.17;;;8.70;99.90;;;;;;5099771;27;20650;-86
2022/03/14 04:27:48;;;;;;;21.43;19.50;;;8.70;99.90;;;;;;5109177;27;20623;-86
2022/03/14 04:30:16;;;;;;;7.67;6.97;;;8.80;99.90;;;;;;5102395;27;20743;-85
2022/03/14 04:32:43;;;;;;;7.70;7.00;;;8.60;99.90;;;;;;5109525;27;20629;-85
2022/03/14 04:35:10;;;;;;;7.07;6.47;;;8.50;99.90;;;;;;5102166;27;20619;-85
2022/03/14 04:37:37;;;;;;;5.10;4.67;;;8.70;99.90;;;;;;5108217;27;20688;-85
2022/03/14 04:40:08;;;;;;;5.10;4.70;;;8.40;99.90;;;;;;5101478;27;20650;-85
2022/03/14 04:42:35;;;;;;;6.20;5.60;;;8.70;99.90;;;;;;5106635;27;20612;-85
2022/03/14 04:45:02;;;;;;;6.20;5.70;;;8.70;99.90;;;;;;5107058;27;20702;-84
2022/03/14 04:47:28;;;;;;;6.77;6.07;;;8.40;99.90;;;;;;5113299;27;20626;-85
2022/03/14 04:49:55;;;;;;;5.63;5.20;;;8.90;99.90;;;;;;5108719;27;20651;-85
2022/03/14 04:52:22;;;;;;;5.00;4.60;;;8.80;99.90;;;;;;5104148;27;20658;-85
2022/03/14 04:54:49;;;;;;;5.67;5.17;;;8.70;99.90;;;;;;5100251;28;21158;-84
2022/03/14 04:57:17;;;;;;;7.77;7.07;;;8.70;99.90;;;;;;5101703;27;20630;-86
2022/03/14 04:59:44;;;;;;;8.80;8.00;;;8.90;99.90;;;;;;5106046;27;20657;-85
2022/03/14 05:02:10;;;;;;;10.00;9.10;;;8.70;99.90;;;;;;5103609;27;21135;-85
2022/03/14 05:04:38;;;;;;;9.67;8.70;;;8.40;99.90;;;;;;5110946;27;20666;-86
2022/03/14 05:07:06;;;;;;;6.27;5.77;;;8.70;99.90;;;;;;5108051;27;20737;-86
2022/03/14 05:09:33;;;;;;;7.73;7.03;;;8.80;99.90;;;;;;5108821;27;20759;-86
2022/03/14 05:11:59;;;;;;;6.67;6.17;;;8.70;99.90;;;;;;5111492;27;20637;-86
2022/03/14 05:14:27;;;;;;;7.33;6.73;;;8.70;99.90;;;;;;5108475;27;20727;-86
2022/03/14 05:16:54;;;;;;;8.00;7.40;;;8.50;99.90;;;;;;5112321;27;21139;-86
2022/03/14 05:19:21;;;;;;;6.90;6.30;;;8.50;99.90;;;;;;5101460;28;20640;-85
2022/03/14 05:21:48;;;;;;;7.97;7.10;;;8.50;99.90;;;;;;5111349;27;20633;-87
2022/03/14 05:24:14;;;;;;;7.90;7.30;;;8.50;99.90;;;;;;5108926;28;21066;-84
2022/03/14 05:26:41;;;;;;;8.10;7.37;;;8.50;99.90;;;;;;5110785;27;20622;-85
2022/03/14 05:29:12;;;;;;;6.97;6.43;;;8.30;99.90;;;;;;5110466;27;20619;-85
2022/03/14 05:31:40;;;;;;;5.70;5.30;;;8.70;99.90;;;;;;5109935;28;20701;-84
2022/03/14 05:34:07;;;;;;;6.60;6.10;;;8.40;99.90;;;;;;5114125;27;21061;-85
2022/03/14 05:36:34;;;;;;;3.87;3.47;;;8.40;99.90;;;;;;5109013;28;20645;-86
2022/03/14 05:39:01;;;;;;;2.40;2.20;;;8.70;99.90;;;;;;5109093;27;20625;-86
2022/03/14 05:41:28;;;;;;;1.93;1.77;;;8.60;99.90;;;;;;5111098;27;20738;-85
2022/03/14 05:43:55;;;;;;;3.37;1.93;;;8.30;99.90;;;;;;5100677;27;21027;-85
2022/03/14 05:46:22;;;;;;;2.33;2.13;;;8.60;99.90;;;;;;5114710;28;20642;-87
2022/03/14 05:48:50;;;;;;;2.30;2.10;;;8.60;99.90;;;;;;5109523;28;20612;-85
2022/03/14 05:51:17;;;;;;;1.70;1.60;;;8.50;99.90;;;;;;5116027;28;20664;-85
2022/03/14 05:53:43;;;;;;;2.67;2.50;;;8.50;99.90;;;;;;5112704;28;20624;-84
2022/03/14 05:56:10;;;;;;;7.60;7.07;;;8.50;99.90;;;;;;5110594;28;20622;-85
2022/03/14 05:58:37;;;;;;;1.77;1.67;;;8.50;99.90;;;;;;5103206;28;20632;-86
2022/03/14 06:01:04;;;;;;;2.03;1.93;;;8.40;99.90;;;;;;5113178;28;21136;-86
2022/03/14 06:03:32;;;;;;;1.40;1.30;;;8.40;99.90;;;;;;5112463;28;20632;-85
2022/03/14 06:06:00;;;;;;;1.20;1.00;;;8.40;99.90;;;;;;5103644;28;20618;-85
2022/03/14 06:08:27;;;;;;;1.70;1.20;;;8.50;99.90;;;;;;5102131;28;21477;-86
2022/03/14 06:10:55;;;;;;;2.37;2.27;;;8.60;99.90;;;;;;5108758;28;21263;-86
2022/03/14 06:13:22;;;;;;;1.13;1.03;;;8.50;99.90;;;;;;5102740;28;20989;-86
2022/03/14 06:15:49;;;;;;;1.40;1.30;;;7.90;99.90;;;;;;5105684;28;20623;-85
2022/03/14 06:18:16;;;;;;;1.50;1.40;;;8.10;99.90;;;;;;5103017;28;20628;-86
2022/03/14 06:20:42;;;;;;;1.27;1.00;;;8.30;99.90;;;;;;5113725;28;20647;-87
2022/03/14 06:23:10;;;;;;;1.30;0.97;;;8.50;99.90;;;;;;5132129;28;20610;-87
2022/03/14 06:25:37;;;;;;;1.17;1.07;;;8.00;99.90;;;;;;5108151;28;20664;-86
2022/03/14 06:28:05;;;;;;;1.00;1.00;;;8.40;99.90;;;;;;5106219;28;20620;-86
2022/03/14 06:30:32;;;;;;;1.00;1.00;;;8.50;99.90;;;;;;5105673;28;20689;-86
2022/03/14 06:32:59;;;;;;;1.60;1.27;;;8.40;99.90;;;;;;5108273;28;20629;-85
2022/03/14 06:35:26;;;;;;;1.40;1.30;;;8.40;99.90;;;;;;5115376;28;20635;-86
2022/03/14 06:37:53;;;;;;;2.40;1.07;;;8.50;99.90;;;;;;5103451;28;20611;-85
2022/03/14 06:40:23;;;;;;;1.83;1.23;;;8.50;99.90;;;;;;5106359;28;20666;-86
2022/03/14 06:42:52;;;;;;;1.07;1.00;;;8.40;99.90;;;;;;5101498;28;20627;-86
2022/03/14 06:45:22;;;;;;;1.33;1.10;;;8.50;99.90;;;;;;5104993;28;20713;-86
2022/03/14 06:47:49;;;;;;;3.20;1.20;;;8.40;99.90;;;;;;5113882;28;20766;-85
2022/03/14 06:50:16;;;;;;;1.30;1.00;;;7.90;99.90;;;;;;5103431;28;21224;-86
2022/03/14 06:52:43;;;;;;;1.83;1.10;;;8.40;99.90;;;;;;5101501;28;20751;-88
2022/03/14 06:55:10;;;;;;;2.80;1.07;;;8.50;99.90;;;;;;5107983;28;21232;-88
2022/03/14 06:57:39;;;;;;;1.10;1.00;;;8.60;99.90;;;;;;5107528;28;20624;-88
2022/03/14 07:00:07;;;;;;;1.63;0.90;;;8.50;99.90;;;;;;5109369;27;20649;-87
2022/03/14 07:02:35;;;;;;;1.20;1.10;;;8.50;99.90;;;;;;5114221;27;20744;-86
2022/03/14 07:05:02;;;;;;;2.67;1.10;;;8.50;99.90;;;;;;5111431;28;20689;-84
2022/03/14 07:07:30;;;;;;;1.50;1.37;;;8.50;99.90;;;;;;5116812;27;20636;-86
2022/03/14 07:09:59;;;;;;;2.07;1.10;;;8.40;99.90;;;;;;5111232;27;20662;-85
2022/03/14 07:12:27;;;;;;;1.87;1.40;;;8.30;99.90;;;;;;5115668;27;20656;-85
2022/03/14 07:14:57;;;;;;;4.10;1.70;;;8.50;99.90;;;;;;5111612;27;20634;-87
2022/03/14 07:17:24;;;;;;;1.47;1.00;;;8.40;99.90;;;;;;5116850;27;21493;-85
2022/03/14 07:19:52;;;;;;;2.30;1.47;;;8.60;99.90;;;;;;5121093;27;20652;-85
2022/03/14 07:22:19;;;;;;;1.80;1.10;;;8.70;99.90;;;;;;5113463;27;20623;-86
2022/03/14 07:24:47;;;;;;;1.57;0.90;;;8.80;99.90;;;;;;5113795;27;20671;-86
2022/03/14 07:27:15;;;;;;;1.90;1.20;;;8.30;99.90;;;;;;5109678;27;20723;-86
2022/03/14 07:29:43;;;;;;;1.33;1.07;;;8.60;99.90;;;;;;5107207;27;21026;-85
2022/03/14 07:32:12;;;;;;;2.03;1.10;;;8.70;99.90;;;;;;5102273;27;20619;-85
2022/03/14 07:34:38;;;;;;;1.27;0.87;;;8.80;99.90;;;;;;5090546;28;21224;-85
2022/03/14 07:37:05;;;;;;;1.10;0.83;;;9.00;99.90;;;;;;5115729;27;21439;-86
2022/03/14 07:39:32;;;;;;;2.90;0.90;;;9.10;99.90;;;;;;5113059;27;21036;-86
2022/03/14 07:42:01;;;;;;;1.67;1.57;;;9.10;99.90;;;;;;5108251;27;20619;-86
2022/03/14 07:44:28;;;;;;;1.00;0.80;;;9.20;99.90;;;;;;5102043;27;20651;-85
2022/03/14 07:46:55;;;;;;;1.30;1.13;;;8.90;99.90;;;;;;5108587;27;20639;-85
2022/03/14 07:49:23;;;;;;;0.73;0.73;;;9.10;99.90;;;;;;5107217;27;20630;-85
2022/03/14 07:51:50;;;;;;;1.00;0.80;;;8.90;99.90;;;;;;5115498;27;20645;-86
2022/03/14 07:54:18;;;;;;;1.63;0.83;;;9.10;99.90;;;;;;5107763;27;20633;-85
2022/03/14 07:56:45;;;;;;;1.10;1.00;;;9.10;99.90;;;;;;5112939;27;22417;-85
2022/03/14 07:59:12;;;;;;;1.53;0.90;;;9.10;99.90;;;;;;5108853;27;20638;-86
2022/03/14 08:01:39;;;;;;;2.00;0.97;;;9.30;99.90;;;;;;5114185;27;20625;-86
2022/03/14 08:04:08;;;;;;;1.37;0.70;;;9.40;99.90;;;;;;5115386;27;20620;-86
2022/03/14 08:06:41;;;;;;;1.00;0.60;;;9.50;99.90;;;;;;5107957;27;20641;-87
2022/03/14 08:09:10;;;;;;;1.23;0.87;;;9.30;99.90;;;;;;5108789;27;20956;-86
2022/03/14 08:11:38;;;;;;;2.17;1.10;;;9.40;99.90;;;;;;5106970;27;20633;-86
2022/03/14 08:14:05;;;;;;;2.63;0.97;;;9.60;99.90;;;;;;5108501;27;20722;-87
2022/03/14 08:16:32;;;;;;;1.83;0.63;;;9.70;99.90;;;;;;5098803;27;20635;-87
2022/03/14 08:18:59;;;;;;;1.73;1.00;;;9.80;99.90;;;;;;5102949;27;20625;-87
2022/03/14 08:21:26;;;;;;;2.67;1.03;;;10.10;99.90;;;;;;5104981;27;20717;-86
2022/03/14 08:23:54;;;;;;;1.73;0.90;;;10.00;99.90;;;;;;5115771;27;20634;-86
2022/03/14 08:26:22;;;;;;;3.70;0.60;;;10.20;99.90;;;;;;5116793;27;20684;-86
2022/03/14 08:28:48;;;;;;;3.13;1.47;;;10.30;99.90;;;;;;5112124;27;20666;-86
2022/03/14 08:31:18;;;;;;;1.33;0.80;;;9.80;99.90;;;;;;5112745;27;21224;-86
2022/03/14 08:33:45;;;;;;;1.80;0.87;;;10.60;99.90;;;;;;5126954;27;20694;-87
2022/03/14 08:36:12;;;;;;;2.30;0.93;;;10.50;99.90;;;;;;5096875;28;20691;-86
2022/03/14 08:38:40;;;;;;;1.77;0.83;;;10.30;99.90;;;;;;5102125;27;20640;-86
2022/03/14 08:41:09;;;;;;;1.90;1.03;;;10.20;99.90;;;;;;5117067;27;20635;-86
2022/03/14 08:43:36;;;;;;;4.50;2.10;;;10.30;99.90;;;;;;5104170;27;20714;-85
2022/03/14 08:46:03;;;;;;;3.07;1.00;;;10.10;99.90;;;;;;5110616;27;20663;-87
2022/03/14 08:48:31;;;;;;;2.10;1.10;;;10.30;99.90;;;;;;5106827;27;20620;-87
2022/03/14 08:50:58;;;;;;;3.20;1.00;;;10.70;99.90;;;;;;5110414;27;20634;-87
2022/03/14 08:53:24;;;;;;;5.40;1.63;;;10.80;99.90;;;;;;5111459;27;21020;-86
2022/03/14 08:55:52;;;;;;;1.70;1.30;;;10.80;99.90;;;;;;5115136;27;20692;-87
2022/03/14 08:58:20;;;;;;;3.60;0.87;;;10.60;99.90;;;;;;5100779;27;20624;-88
2022/03/14 09:00:48;;;;;;;2.67;1.10;;;10.70;99.90;;;;;;5117463;27;20634;-91
2022/03/14 09:03:15;;;;;;;2.27;0.90;;;10.90;99.90;;;;;;5110657;27;20699;-85
2022/03/14 09:05:43;;;;;;;3.30;0.90;;;10.90;99.90;;;;;;5098441;28;20671;-86
2022/03/14 09:08:09;;;;;;;2.37;1.27;;;11.10;99.90;;;;;;5114457;27;20630;-86
2022/03/14 09:10:37;;;;;;;3.87;1.27;;;11.00;99.90;;;;;;5102495;27;20628;-84
2022/03/14 09:13:05;;;;;;;2.77;1.00;;;10.90;99.90;;;;;;5110114;27;21155;-85
2022/03/14 09:15:37;;;;;;;2.20;1.07;;;10.90;99.90;;;;;;5096126;27;21273;-85
2022/03/14 09:18:04;;;;;;;2.33;0.90;;;10.80;99.90;;;;;;5106025;27;21754;-85
2022/03/14 09:20:32;;;;;;;6.77;1.27;;;11.00;99.90;;;;;;5104417;27;21263;-84
2022/03/14 09:22:59;;;;;;;2.80;1.07;;;10.90;99.90;;;;;;5109379;27;20626;-85
2022/03/14 09:25:26;;;;;;;3.80;1.00;;;11.00;99.90;;;;;;5101391;27;20797;-84
2022/03/14 09:27:54;;;;;;;3.27;1.20;;;10.90;99.90;;;;;;5106303;27;20655;-84
2022/03/14 09:30:24;;;;;;;2.83;1.27;;;10.80;99.90;;;;;;5105820;27;20698;-85
2022/03/14 09:32:53;;;;;;;2.90;1.00;;;10.90;99.90;;;;;;5102859;27;20650;-85
2022/03/14 09:35:24;;;;;;;5.90;1.57;;;11.00;99.90;;;;;;5111281;27;20658;-85
2022/03/14 09:37:52;;;;;;;3.30;0.90;;;11.10;99.50;;;;;;5106732;27;20918;-85
2022/03/14 09:40:22;;;;;;;5.60;1.23;;;11.30;99.80;;;;;;5100062;28;20655;-86
2022/03/14 09:42:51;;;;;;;1.47;1.20;;;11.10;97.70;;;;;;5102733;28;21244;-86
2022/03/14 09:45:19;;;;;;;2.77;1.50;;;11.10;98.10;;;;;;5104342;28;21244;-85
2022/03/14 09:47:48;;;;;;;6.20;1.30;;;10.90;97.10;;;;;;5105073;28;20646;-85
2022/03/14 09:50:24;;;;;;;5.60;1.40;;;11.00;95.70;;;;;;5109175;28;20627;-86
2022/03/14 09:52:51;;;;;;;2.13;1.23;;;10.80;95.30;;;;;;5109399;28;20615;-86
2022/03/14 09:55:19;;;;;;;1.67;0.90;;;11.10;96.20;;;;;;5106718;27;20659;-86
2022/03/14 09:57:47;;;;;;;3.47;1.37;;;11.20;95.70;;;;;;5106910;28;20683;-86
2022/03/14 10:00:14;;;;;;;3.40;1.20;;;11.50;95.30;;;;;;5104898;28;20638;-88
2022/03/14 10:02:44;;;;;;;8.20;2.10;;;11.60;94.00;;;;;;5105379;28;20631;-88
2022/03/14 10:05:13;;;;;;;3.47;1.40;;;12.00;93.50;;;;;;5104385;28;20682;-86
2022/03/14 10:07:44;;;;;;;7.30;1.30;;;12.30;92.70;;;;;;5099362;28;20647;-88
2022/03/14 10:10:11;;;;;;;3.30;1.40;;;12.70;90.90;;;;;;5111515;28;20634;-87
2022/03/14 10:12:39;;;;;;;3.33;1.27;;;12.60;90.80;;;;;;5099793;28;20640;-88
2022/03/14 10:15:07;;;;;;;5.23;1.60;;;13.40;90.10;;;;;;5104165;28;20761;-88
2022/03/14 10:17:35;;;;;;;3.73;1.10;;;13.60;88.80;;;;;;5093183;28;20757;-87
2022/03/14 10:20:06;;;;;;;2.67;0.97;;;13.90;87.60;;;;;;5071035;28;20636;-87
2022/03/14 10:22:36;;;;;;;2.70;1.07;;;14.50;86.80;;;;;;5064305;28;66995;-86
2022/03/14 10:25:09;;;;;;;1.53;0.90;;;15.10;85.60;;;;;;5067571;28;21212;-87
2022/03/14 10:27:37;;;;;;;6.37;1.30;;;15.20;81.80;;;;;;5040744;28;20732;-86
2022/03/14 10:30:06;;;;;;;3.87;1.23;;;15.20;80.80;;;;;;5053111;28;20622;-88
2022/03/14 10:32:39;;;;;;;1.80;0.80;;;14.70;81.10;;;;;;5042806;28;20639;-91
2022/03/14 10:35:08;;;;;;;3.13;1.13;;;15.70;79.00;;;;;;5051042;28;20676;-88
2022/03/14 10:37:36;;;;;;;2.97;1.33;;;16.40;75.00;;;;;;5049097;28;20675;-90
2022/03/14 10:40:06;;;;;;;1.57;1.07;;;16.90;74.60;;;;;;5055973;28;20648;-93
2022/03/14 10:42:40;;;;;;;2.70;1.10;;;16.90;71.70;;;;;;5050392;28;20614;-91
2022/03/14 10:45:12;;;;;;;1.90;1.00;;;17.80;67.90;;;;;;5055606;28;20644;-90
2022/03/14 10:47:45;;;;;;;2.83;1.13;;;17.50;67.00;;;;;;5052611;28;20618;-90
2022/03/14 10:50:29;;;;;;;1.83;1.10;;;17.00;63.90;;;;;;5048009;28;20587;-90
2022/03/14 10:53:09;;;;;;;3.40;1.30;;;17.40;65.40;;;;;;5053679;28;20687;-91
2022/03/14 10:55:58;;;;;;;3.07;0.97;;;16.80;66.40;;;;;;5066252;28;20664;-92
2022/03/14 10:58:30;;;;;;;2.57;1.50;;;16.80;64.80;;;;;;5074178;28;20622;-91
2022/03/14 11:00:59;;;;;;;1.70;0.87;;;16.20;66.40;;;;;;5053123;28;20644;-90
2022/03/14 11:03:30;;;;;;;3.33;0.93;;;16.60;67.40;;;;;;5049231;28;20615;-91
2022/03/14 11:06:01;;;;;;;2.17;0.70;;;17.70;63.80;;;;;;5045394;28;21030;-89
2022/03/14 11:08:31;;;;;;;3.83;0.90;;;17.30;65.50;;;;;;5046059;28;20709;-89
2022/03/14 11:11:05;;;;;;;3.13;1.63;;;18.20;63.70;;;;;;5048683;28;20707;-88
2022/03/14 11:13:38;;;;;;;3.90;1.10;;;18.50;61.30;;;;;;5046537;28;21037;-90
2022/03/14 11:16:06;;;;;;;1.60;1.30;;;18.80;60.70;;;;;;5050642;28;20625;-88
2022/03/14 11:18:36;;;;;;;2.70;1.13;;;17.90;58.60;;;;;;5047521;28;20622;-89
2022/03/14 11:21:04;;;;;;;1.37;0.80;;;19.20;57.70;;;;;;5047708;28;20659;-89
2022/03/14 11:23:32;;;;;;;2.27;1.43;;;18.60;57.80;;;;;;5047900;28;20625;-88
2022/03/14 11:26:02;;;;;;;1.67;0.67;;;19.00;56.90;;;;;;5047394;28;20675;-90
2022/03/14 11:28:35;;;;;;;1.97;0.90;;;19.90;57.20;;;;;;5042554;28;20643;-88
2022/03/14 11:31:02;;;;;;;2.27;1.03;;;19.20;55.00;;;;;;5047866;28;21003;-90
2022/03/14 11:33:32;;;;;;;2.10;1.20;;;19.20;54.50;;;;;;5055081;28;20629;-88
2022/03/14 11:36:00;;;;;;;4.07;1.60;;;18.80;55.00;;;;;;5035084;28;20649;-92
2022/03/14 11:38:28;;;;;;;2.57;1.10;;;16.60;57.60;;;;;;5064318;28;20629;-92
2022/03/14 11:40:56;;;;;;;2.40;1.07;;;17.50;58.70;;;;;;5070320;28;20618;-90
2022/03/14 11:43:25;;;;;;;1.80;0.77;;;17.20;58.00;;;;;;5063006;28;20668;-91
2022/03/14 11:45:53;;;;;;;3.27;1.60;;;19.10;57.20;;;;;;5066781;28;20719;-88
2022/03/14 11:48:21;;;;;;;3.20;0.90;;;17.80;56.70;;;;;;5061850;28;21176;-88
2022/03/14 11:50:56;;;;;;;1.53;1.00;;;17.80;57.20;;;;;;5044419;28;20618;-90
2022/03/14 11:53:24;;;;;;;3.43;1.10;;;18.70;55.80;;;;;;5044702;28;20646;-88
2022/03/14 11:55:54;;;;;;;1.67;1.00;;;18.20;55.10;;;;;;5053287;28;20647;-88
2022/03/14 11:58:37;;;;;;;1.63;0.90;;;18.30;56.00;;;;;;5044597;28;20658;-89
2022/03/14 12:01:21;;;;;;;1.73;1.13;;;20.20;53.80;;;;;;5041940;28;20624;-89
2022/03/14 12:03:49;;;;;;;3.73;1.43;;;21.20;51.70;;;;;;5044733;28;20645;-90
2022/03/14 12:06:17;;;;;;;1.50;1.00;;;19.70;51.80;;;;;;5053562;28;20688;-90
2022/03/14 12:08:55;;;;;;;1.50;0.90;;;18.70;52.90;;;;;;5048251;28;20610;-90
2022/03/14 12:11:49;;;;;;;2.43;0.80;;;18.90;53.70;;;;;;5048220;28;20634;-90
2022/03/14 12:14:42;;;;;;;2.07;1.13;;;19.70;52.50;;;;;;4989916;28;20700;-89
2022/03/14 12:17:24;;;;;;;1.73;1.00;;;18.50;53.90;;;;;;5026104;28;21498;-89
2022/03/14 12:19:54;;;;;;;3.90;1.47;;;19.20;52.60;;;;;;5033394;28;20645;-89
2022/03/14 12:22:43;;;;;;;3.13;1.30;;;21.50;51.50;;;;;;5047871;28;20678;-89
2022/03/14 12:25:12;;;;;;;1.60;0.97;;;22.10;48.30;;;;;;5045254;28;20646;-89
2022/03/14 12:27:41;;;;;;;1.90;1.10;;;20.90;48.40;;;;;;5051913;28;20654;-91
2022/03/14 12:30:31;;;;;;;4.03;1.20;;;21.80;48.80;;;;;;5049375;28;20730;-90
2022/03/14 12:33:00;;;;;;;10.27;7.83;;;20.30;49.50;;;;;;5046930;28;20625;-90
2022/03/14 12:35:33;;;;;;;3.70;1.50;;;19.30;49.80;;;;;;5052696;28;20645;-89
2022/03/14 12:38:14;;;;;;;4.40;3.77;;;18.10;52.10;;;;;;5043123;28;20632;-89
2022/03/14 12:40:45;;;;;;;2.63;1.23;;;17.90;52.60;;;;;;5049819;28;20642;-89
2022/03/14 12:43:27;;;;;;;4.40;1.70;;;17.40;52.40;;;;;;5049429;28;20975;-89
2022/03/14 12:45:57;;;;;;;1.80;0.90;;;17.70;52.90;;;;;;5049619;28;20677;-89
2022/03/14 12:48:28;;;;;;;2.90;0.80;;;18.60;51.70;;;;;;5034762;28;20629;-89
2022/03/14 12:51:02;;;;;;;2.13;0.70;;;18.60;51.20;;;;;;5037222;28;20622;-88
2022/03/14 12:53:51;;;;;;;1.70;0.97;;;17.50;50.90;;;;;;5041913;28;20633;-89